Time;durP1;ratioP1;P1;durP2;ratioP2;P2;SDS_P1;SDS_P2;PMS_P1;PMS_P2;Temp;Humidity;BMP_temperature;BMP_pressure;BME280_temperature;BME280_humidity;BME280_pressure;Samples;Min_cycle;Max_cycle;Signal;HPM_P1;HPM_P2
2023/04/09 00:00:28;;;;;;;20.33;16.27;;;7.40;38.70;;;;;;5076594;28;20543;-71
2023/04/09 00:02:55;;;;;;;19.40;15.37;;;7.40;38.60;;;;;;5072962;28;20489;-70
2023/04/09 00:05:22;;;;;;;20.37;16.50;;;7.40;38.60;;;;;;5077707;28;20480;-71
2023/04/09 00:07:49;;;;;;;20.20;15.47;;;7.40;38.80;;;;;;5080039;28;20490;-71
2023/04/09 00:10:17;;;;;;;22.13;16.57;;;7.40;38.90;;;;;;5081805;28;21211;-71
2023/04/09 00:12:44;;;;;;;20.90;16.40;;;7.40;38.70;;;;;;5071632;28;21015;-71
2023/04/09 00:15:11;;;;;;;19.90;15.20;;;7.40;38.70;;;;;;5070109;22;20494;-73
2023/04/09 00:17:38;;;;;;;20.60;15.03;;;7.40;38.90;;;;;;5045769;28;20469;-73
2023/04/09 00:20:06;;;;;;;19.70;14.50;;;7.30;39.20;;;;;;5045253;28;20462;-71
2023/04/09 00:22:33;;;;;;;19.47;16.10;;;7.30;39.20;;;;;;5041545;28;20887;-73
2023/04/09 00:25:00;;;;;;;18.80;14.80;;;7.30;39.40;;;;;;5029523;28;20490;-71
2023/04/09 00:27:28;;;;;;;21.90;16.70;;;7.20;39.50;;;;;;5020617;28;20463;-73
2023/04/09 00:29:55;;;;;;;20.73;15.37;;;7.20;39.50;;;;;;5024229;28;20459;-73
2023/04/09 00:32:21;;;;;;;22.03;15.67;;;7.20;39.40;;;;;;5001569;28;20872;-72
2023/04/09 00:34:48;;;;;;;19.40;14.70;;;7.30;39.40;;;;;;5005803;28;20994;-71
2023/04/09 00:37:15;;;;;;;18.97;14.80;;;7.30;39.20;;;;;;5008410;28;20540;-71
2023/04/09 00:39:42;;;;;;;20.73;15.73;;;7.30;39.30;;;;;;5003114;28;20488;-71
2023/04/09 00:42:09;;;;;;;20.70;16.67;;;7.30;39.20;;;;;;5004145;28;20463;-71
2023/04/09 00:44:37;;;;;;;20.00;15.67;;;7.30;39.20;;;;;;5006178;28;20495;-71
2023/04/09 00:47:04;;;;;;;19.60;14.23;;;7.30;39.20;;;;;;5001513;28;20567;-70
2023/04/09 00:49:30;;;;;;;23.30;16.53;;;7.40;39.20;;;;;;5010148;28;20472;-74
2023/04/09 00:51:57;;;;;;;19.10;14.50;;;7.40;39.10;;;;;;5008492;28;20974;-70
2023/04/09 00:54:24;;;;;;;20.50;15.13;;;7.30;39.10;;;;;;5001848;28;20488;-71
2023/04/09 00:56:51;;;;;;;21.23;15.77;;;7.30;39.30;;;;;;5005491;28;20476;-71
2023/04/09 00:59:19;;;;;;;18.87;15.20;;;7.30;39.80;;;;;;5006606;28;20475;-70
2023/04/09 01:01:47;;;;;;;20.60;15.83;;;7.20;39.70;;;;;;5004442;28;20573;-70
2023/04/09 01:04:14;;;;;;;24.53;17.67;;;7.20;39.70;;;;;;5003859;28;20856;-71
2023/04/09 01:06:47;;;;;;;22.07;15.40;;;7.20;39.60;;;;;;5002310;28;20488;-72
2023/04/09 01:09:19;;;;;;;20.03;15.40;;;7.20;39.90;;;;;;5004533;28;20460;-71
2023/04/09 01:11:55;;;;;;;20.37;15.57;;;7.20;39.90;;;;;;5009558;28;20823;-71
2023/04/09 01:14:27;;;;;;;21.60;14.97;;;7.20;39.60;;;;;;5002035;28;20499;-73
2023/04/09 01:17:00;;;;;;;18.87;14.10;;;7.20;39.50;;;;;;5008568;28;20456;-71
2023/04/09 01:19:39;;;;;;;19.07;15.60;;;7.30;39.50;;;;;;5009623;28;20468;-70
2023/04/09 01:22:13;;;;;;;19.67;15.07;;;7.20;39.50;;;;;;5007235;28;20467;-72
2023/04/09 01:24:51;;;;;;;19.13;15.27;;;7.20;39.30;;;;;;5008059;28;20491;-71
2023/04/09 01:27:18;;;;;;;20.10;14.90;;;7.20;39.20;;;;;;5010100;28;20459;-71
2023/04/09 01:29:51;;;;;;;21.10;16.40;;;7.20;39.30;;;;;;5004203;28;20452;-72
2023/04/09 01:32:20;;;;;;;20.17;15.97;;;7.20;39.30;;;;;;5004763;28;20484;-71
2023/04/09 01:34:49;;;;;;;22.33;17.13;;;7.20;39.20;;;;;;5009789;28;20493;-71
2023/04/09 01:37:16;;;;;;;19.13;15.33;;;7.20;39.20;;;;;;5003573;28;20468;-72
2023/04/09 01:39:44;;;;;;;22.40;16.70;;;7.20;39.20;;;;;;5004899;28;20482;-72
2023/04/09 01:42:11;;;;;;;23.00;18.17;;;7.20;39.20;;;;;;5009298;28;20470;-70
2023/04/09 01:44:40;;;;;;;23.90;18.80;;;7.20;39.30;;;;;;5007261;28;20490;-72
2023/04/09 01:47:09;;;;;;;21.37;16.80;;;7.20;39.50;;;;;;5007127;28;20679;-72
2023/04/09 01:49:37;;;;;;;21.37;16.43;;;7.20;39.70;;;;;;5004702;28;20507;-71
2023/04/09 01:52:04;;;;;;;22.03;16.03;;;7.20;39.50;;;;;;5008563;28;20464;-72
2023/04/09 01:54:31;;;;;;;19.40;13.80;;;7.20;39.40;;;;;;5007917;28;20492;-71
2023/04/09 01:56:58;;;;;;;17.30;13.33;;;7.20;39.20;;;;;;5008050;28;20491;-72
2023/04/09 01:59:25;;;;;;;18.87;14.37;;;7.20;39.20;;;;;;5005311;28;20456;-72
2023/04/09 02:01:55;;;;;;;18.00;13.60;;;7.20;39.30;;;;;;5013642;28;20481;-71
2023/04/09 02:04:30;;;;;;;21.60;15.67;;;7.20;39.20;;;;;;5005018;28;20598;-71
2023/04/09 02:07:02;;;;;;;23.40;17.23;;;7.20;39.20;;;;;;5008105;28;20941;-72
2023/04/09 02:09:31;;;;;;;22.87;16.27;;;7.20;39.10;;;;;;5003274;28;20456;-71
2023/04/09 02:11:59;;;;;;;24.30;17.97;;;7.20;39.10;;;;;;5003920;28;20813;-72
2023/04/09 02:14:29;;;;;;;20.77;16.33;;;7.10;39.20;;;;;;5007057;28;20881;-71
2023/04/09 02:16:56;;;;;;;24.57;18.93;;;7.10;39.30;;;;;;5004198;28;20502;-71
2023/04/09 02:19:24;;;;;;;24.60;18.30;;;7.10;39.50;;;;;;5009300;28;20460;-72
2023/04/09 02:21:51;;;;;;;22.50;16.37;;;7.10;39.50;;;;;;5002795;28;20542;-71
2023/04/09 02:24:18;;;;;;;29.53;18.63;;;7.10;39.40;;;;;;5001694;28;20483;-71
2023/04/09 02:26:45;;;;;;;22.00;18.53;;;7.10;39.30;;;;;;5006404;28;20475;-72
2023/04/09 02:29:11;;;;;;;21.70;16.30;;;7.10;39.30;;;;;;5010053;28;20630;-72
2023/04/09 02:31:38;;;;;;;22.77;17.27;;;7.10;39.20;;;;;;5009946;28;20843;-71
2023/04/09 02:34:05;;;;;;;23.00;17.70;;;7.10;39.60;;;;;;5000841;28;20994;-71
2023/04/09 02:36:33;;;;;;;23.30;18.00;;;7.10;39.50;;;;;;5012951;28;20460;-72
2023/04/09 02:39:00;;;;;;;22.17;15.80;;;7.10;39.20;;;;;;5008370;28;20479;-71
2023/04/09 02:41:26;;;;;;;23.20;17.40;;;7.10;39.30;;;;;;5006567;28;20824;-72
2023/04/09 02:43:53;;;;;;;23.83;19.07;;;7.10;39.30;;;;;;5007113;28;20479;-71
2023/04/09 02:46:20;;;;;;;23.10;17.37;;;7.10;39.40;;;;;;5004489;28;20471;-71
2023/04/09 02:48:46;;;;;;;25.80;19.30;;;7.10;39.40;;;;;;5004690;28;20827;-72
2023/04/09 02:51:13;;;;;;;24.83;19.53;;;7.10;39.30;;;;;;5008246;28;20459;-72
2023/04/09 02:53:41;;;;;;;22.20;17.30;;;7.10;39.40;;;;;;5003716;28;20484;-72
2023/04/09 02:56:08;;;;;;;26.47;18.40;;;7.10;39.20;;;;;;5003093;28;20464;-72
2023/04/09 02:58:35;;;;;;;32.53;21.00;;;7.20;39.20;;;;;;5005299;28;20970;-72
2023/04/09 03:01:01;;;;;;;33.67;22.60;;;7.20;39.20;;;;;;5008834;28;20674;-71
2023/04/09 03:03:29;;;;;;;25.40;17.83;;;7.20;39.10;;;;;;5020736;28;20833;-72
2023/04/09 03:05:56;;;;;;;22.13;16.10;;;7.20;39.20;;;;;;5030742;28;20470;-71
2023/04/09 03:08:23;;;;;;;22.17;16.30;;;7.10;39.30;;;;;;5033224;28;20455;-71
2023/04/09 03:10:51;;;;;;;20.93;16.30;;;7.10;39.60;;;;;;5028216;28;20494;-72
2023/04/09 03:13:18;;;;;;;21.30;15.10;;;7.00;39.40;;;;;;5023274;28;20870;-71
2023/04/09 03:15:45;;;;;;;21.03;16.47;;;7.00;39.30;;;;;;5025622;28;20501;-71
2023/04/09 03:18:12;;;;;;;21.57;16.60;;;7.00;39.30;;;;;;5027023;28;20459;-72
2023/04/09 03:20:39;;;;;;;22.93;17.17;;;7.00;39.30;;;;;;5027742;28;20473;-71
2023/04/09 03:23:05;;;;;;;32.50;18.07;;;7.00;39.50;;;;;;5021217;28;21016;-71
2023/04/09 03:25:32;;;;;;;22.70;17.70;;;7.00;39.40;;;;;;5023815;28;20483;-72
2023/04/09 03:28:00;;;;;;;24.50;17.97;;;7.00;39.40;;;;;;5027357;28;20466;-72
2023/04/09 03:30:27;;;;;;;24.53;18.60;;;7.00;39.40;;;;;;5025975;28;20455;-71
2023/04/09 03:32:54;;;;;;;25.80;18.93;;;7.00;39.30;;;;;;5024215;28;20462;-72
2023/04/09 03:35:21;;;;;;;24.43;17.60;;;7.00;39.10;;;;;;5020251;28;20570;-72
2023/04/09 03:37:48;;;;;;;26.70;20.70;;;7.00;39.20;;;;;;5022933;28;20467;-72
2023/04/09 03:40:15;;;;;;;23.80;18.90;;;7.00;39.30;;;;;;5026061;28;20980;-72
2023/04/09 03:42:42;;;;;;;24.90;19.50;;;7.00;39.30;;;;;;5026154;28;20470;-71
2023/04/09 03:45:11;;;;;;;24.23;17.53;;;7.00;39.10;;;;;;5023618;28;20487;-71
2023/04/09 03:47:38;;;;;;;26.30;19.93;;;7.00;39.40;;;;;;5020636;28;20455;-72
2023/04/09 03:50:05;;;;;;;25.57;19.77;;;7.00;39.40;;;;;;5028365;28;20455;-71
2023/04/09 03:52:32;;;;;;;26.77;18.73;;;7.00;39.30;;;;;;5026426;28;20459;-72
2023/04/09 03:54:59;;;;;;;31.90;22.97;;;7.00;39.40;;;;;;5025874;28;20486;-71
2023/04/09 03:57:26;;;;;;;29.50;20.30;;;7.00;39.40;;;;;;5028345;28;20462;-71
2023/04/09 03:59:52;;;;;;;27.00;19.67;;;7.00;39.40;;;;;;5023983;28;20467;-72
2023/04/09 04:02:20;;;;;;;28.20;20.47;;;7.00;39.40;;;;;;5026903;28;20483;-71
2023/04/09 04:04:48;;;;;;;26.67;19.27;;;7.00;39.30;;;;;;5022568;28;20471;-72
2023/04/09 04:07:15;;;;;;;28.37;18.37;;;7.00;39.50;;;;;;5022457;28;20945;-72
2023/04/09 04:09:41;;;;;;;26.57;18.93;;;6.90;39.40;;;;;;5021080;28;21011;-72
2023/04/09 04:12:08;;;;;;;24.60;18.43;;;6.90;39.60;;;;;;5022372;28;20472;-71
2023/04/09 04:14:35;;;;;;;27.10;20.10;;;6.90;39.70;;;;;;5026583;28;20478;-71
2023/04/09 04:17:02;;;;;;;29.10;20.90;;;6.90;39.70;;;;;;5021066;28;20467;-72
2023/04/09 04:19:30;;;;;;;28.50;19.70;;;6.90;39.60;;;;;;5023616;28;20463;-71
2023/04/09 04:21:57;;;;;;;27.53;20.13;;;7.00;39.70;;;;;;5025098;28;20463;-71
2023/04/09 04:24:24;;;;;;;28.20;20.00;;;6.90;39.70;;;;;;5027350;28;20486;-71
2023/04/09 04:26:51;;;;;;;29.10;19.93;;;6.90;39.70;;;;;;5026931;28;20946;-71
2023/04/09 04:29:18;;;;;;;27.40;18.93;;;7.00;39.60;;;;;;5028155;28;20467;-72
2023/04/09 04:31:44;;;;;;;28.43;21.23;;;6.90;39.60;;;;;;5028910;28;20946;-71
2023/04/09 04:34:11;;;;;;;26.80;20.40;;;7.00;39.40;;;;;;5019815;28;21000;-72
2023/04/09 04:36:39;;;;;;;24.23;17.83;;;7.00;39.40;;;;;;5027134;28;20486;-71
2023/04/09 04:39:06;;;;;;;24.93;17.93;;;7.00;39.40;;;;;;5027563;28;20465;-72
2023/04/09 04:41:33;;;;;;;27.23;19.60;;;7.00;39.40;;;;;;5020141;28;20474;-71
2023/04/09 04:43:59;;;;;;;25.63;19.90;;;7.00;39.40;;;;;;5015999;28;20908;-71
2023/04/09 04:46:26;;;;;;;26.10;19.00;;;7.00;39.20;;;;;;5030727;28;20473;-72
2023/04/09 04:48:53;;;;;;;23.10;16.30;;;7.00;39.40;;;;;;5028122;28;20455;-71
2023/04/09 04:51:20;;;;;;;22.87;17.93;;;7.00;39.60;;;;;;5028869;28;20459;-72
2023/04/09 04:53:48;;;;;;;24.60;16.90;;;7.00;39.60;;;;;;5030887;28;20474;-72
2023/04/09 04:56:15;;;;;;;28.27;16.97;;;6.90;39.70;;;;;;5022619;28;20983;-70
2023/04/09 04:58:42;;;;;;;21.47;16.93;;;7.00;39.60;;;;;;5026794;28;20461;-71
2023/04/09 05:01:09;;;;;;;22.73;18.50;;;7.00;39.60;;;;;;5023876;28;20467;-71
2023/04/09 05:03:35;;;;;;;24.17;18.60;;;6.90;39.70;;;;;;5026097;28;20467;-71
2023/04/09 05:06:02;;;;;;;26.83;18.57;;;6.90;39.80;;;;;;5025022;28;20485;-72
2023/04/09 05:08:29;;;;;;;24.70;17.80;;;6.90;39.80;;;;;;5026008;28;20460;-72
2023/04/09 05:10:57;;;;;;;28.50;19.50;;;6.90;39.90;;;;;;5027631;28;20466;-70
2023/04/09 05:13:24;;;;;;;26.13;18.30;;;6.90;39.90;;;;;;5023120;28;20462;-72
2023/04/09 05:15:51;;;;;;;29.43;19.33;;;6.90;39.90;;;;;;5026134;28;20734;-71
2023/04/09 05:18:17;;;;;;;24.10;17.73;;;6.90;40.10;;;;;;5026346;28;20466;-71
2023/04/09 05:20:44;;;;;;;29.20;19.30;;;6.90;40.10;;;;;;5029140;28;20454;-71
2023/04/09 05:23:11;;;;;;;28.53;18.47;;;6.90;40.20;;;;;;5027145;28;20459;-71
2023/04/09 05:25:38;;;;;;;26.87;18.30;;;7.00;40.10;;;;;;5021143;28;20498;-72
2023/04/09 05:28:07;;;;;;;26.00;18.63;;;7.00;40.10;;;;;;5023568;28;20469;-71
2023/04/09 05:30:33;;;;;;;26.93;18.50;;;7.10;40.10;;;;;;5026341;28;20489;-72
2023/04/09 05:33:00;;;;;;;26.67;19.90;;;7.10;39.90;;;;;;5030537;28;20937;-71
2023/04/09 05:35:27;;;;;;;26.20;18.67;;;7.20;39.70;;;;;;5024591;28;20487;-71
2023/04/09 05:37:53;;;;;;;24.73;18.30;;;7.20;39.50;;;;;;5029536;28;20493;-72
2023/04/09 05:40:20;;;;;;;26.10;19.10;;;7.30;39.40;;;;;;5026003;28;20996;-71
2023/04/09 05:42:47;;;;;;;25.03;18.73;;;7.40;39.20;;;;;;5019187;28;20470;-71
2023/04/09 05:45:15;;;;;;;22.93;17.30;;;7.40;39.00;;;;;;5023591;28;20492;-72
2023/04/09 05:47:42;;;;;;;23.53;15.83;;;7.30;39.20;;;;;;5027631;28;20813;-71
2023/04/09 05:50:10;;;;;;;23.10;15.30;;;7.40;39.20;;;;;;5028396;28;20577;-71
2023/04/09 05:52:37;;;;;;;22.67;17.57;;;7.40;39.20;;;;;;5029342;28;20969;-71
2023/04/09 05:55:05;;;;;;;25.97;18.67;;;7.40;39.20;;;;;;5025211;28;20478;-71
2023/04/09 05:57:32;;;;;;;23.23;17.60;;;7.40;39.10;;;;;;5025221;28;20506;-71
2023/04/09 05:59:59;;;;;;;23.77;17.73;;;7.40;39.20;;;;;;5024472;28;20463;-72
2023/04/09 06:02:27;;;;;;;24.90;18.90;;;7.50;39.20;;;;;;5027824;28;20474;-71
2023/04/09 06:04:54;;;;;;;29.00;19.70;;;7.60;39.20;;;;;;5027005;28;20475;-72
2023/04/09 06:07:20;;;;;;;28.50;20.40;;;7.80;38.30;;;;;;5024012;28;20550;-71
2023/04/09 06:09:47;;;;;;;28.53;20.73;;;7.80;37.50;;;;;;5028656;28;20490;-72
2023/04/09 06:12:14;;;;;;;27.03;19.17;;;7.90;37.70;;;;;;5033206;28;20473;-72
2023/04/09 06:14:41;;;;;;;25.87;19.40;;;8.00;37.50;;;;;;5069223;22;20488;-67
2023/04/09 06:17:07;;;;;;;24.57;18.87;;;8.20;37.30;;;;;;5069100;28;21075;-66
2023/04/09 06:19:35;;;;;;;28.10;20.80;;;8.20;37.00;;;;;;5068151;28;20483;-67
2023/04/09 06:22:02;;;;;;;28.30;20.57;;;8.20;36.60;;;;;;5064502;28;20484;-67
2023/04/09 06:24:31;;;;;;;27.77;20.60;;;8.20;36.50;;;;;;5064651;28;21250;-66
2023/04/09 06:26:57;;;;;;;28.53;21.50;;;8.20;36.00;;;;;;5063059;28;20851;-66
2023/04/09 06:29:24;;;;;;;28.77;21.83;;;8.30;35.80;;;;;;5066936;28;20461;-66
2023/04/09 06:31:51;;;;;;;28.50;20.67;;;8.20;35.60;;;;;;5064015;28;20484;-66
2023/04/09 06:34:18;;;;;;;29.90;21.27;;;8.20;35.70;;;;;;5065219;28;20484;-67
2023/04/09 06:36:46;;;;;;;27.87;21.17;;;8.20;35.80;;;;;;5065874;28;20487;-67
2023/04/09 06:39:12;;;;;;;31.53;21.60;;;8.10;35.70;;;;;;5059325;28;20465;-67
2023/04/09 06:41:39;;;;;;;33.70;21.60;;;8.00;35.50;;;;;;5063918;28;20460;-66
2023/04/09 06:44:06;;;;;;;28.80;20.73;;;8.00;35.70;;;;;;5064426;28;20457;-66
2023/04/09 06:46:32;;;;;;;29.67;20.43;;;7.90;35.80;;;;;;5065570;28;20480;-67
2023/04/09 06:48:59;;;;;;;30.47;21.57;;;7.80;36.10;;;;;;5067366;28;21094;-67
2023/04/09 06:51:26;;;;;;;30.87;22.37;;;7.80;36.40;;;;;;5067808;28;21014;-67
2023/04/09 06:53:54;;;;;;;33.07;22.80;;;7.70;36.60;;;;;;5062838;28;20902;-67
2023/04/09 06:56:21;;;;;;;28.07;19.90;;;7.80;36.60;;;;;;5064659;28;20489;-67
2023/04/09 06:58:48;;;;;;;29.63;21.87;;;7.90;36.60;;;;;;5057604;28;20987;-67
2023/04/09 07:01:16;;;;;;;26.73;19.70;;;8.00;36.50;;;;;;5059688;28;20480;-67
2023/04/09 07:03:42;;;;;;;24.20;17.60;;;8.10;36.50;;;;;;5060047;28;20500;-67
2023/04/09 07:06:09;;;;;;;26.80;19.50;;;8.20;35.80;;;;;;5060745;28;20493;-67
2023/04/09 07:08:36;;;;;;;27.47;19.17;;;8.30;35.60;;;;;;5057874;28;20848;-67
2023/04/09 07:11:04;;;;;;;27.70;20.93;;;8.20;35.30;;;;;;5063341;28;20475;-67
2023/04/09 07:13:31;;;;;;;26.57;20.10;;;8.10;35.50;;;;;;5048401;28;20497;-67
2023/04/09 07:15:58;;;;;;;30.77;20.63;;;8.10;35.50;;;;;;5055864;28;21062;-67
2023/04/09 07:18:25;;;;;;;29.20;20.73;;;8.10;35.20;;;;;;5058825;28;20457;-67
2023/04/09 07:20:52;;;;;;;28.87;19.87;;;8.00;34.80;;;;;;5063658;28;20472;-67
2023/04/09 07:23:19;;;;;;;30.90;21.30;;;7.80;35.20;;;;;;5062104;28;20457;-67
2023/04/09 07:25:46;;;;;;;29.30;20.83;;;7.70;35.70;;;;;;5054095;28;20468;-67
2023/04/09 07:28:14;;;;;;;31.63;21.57;;;7.70;35.90;;;;;;5059043;28;20493;-68
2023/04/09 07:30:41;;;;;;;28.90;20.40;;;7.70;36.00;;;;;;5057771;28;21015;-67
2023/04/09 07:33:07;;;;;;;29.70;20.97;;;7.60;36.20;;;;;;5065030;28;20489;-67
2023/04/09 07:35:34;;;;;;;31.97;22.00;;;7.50;36.40;;;;;;5061888;28;20473;-67
2023/04/09 07:38:01;;;;;;;30.70;20.50;;;7.50;36.70;;;;;;5065042;28;20485;-67
2023/04/09 07:40:27;;;;;;;30.83;21.60;;;7.50;36.80;;;;;;5054985;28;20473;-68
2023/04/09 07:42:54;;;;;;;29.50;20.40;;;7.40;37.50;;;;;;5061302;28;20462;-67
2023/04/09 07:45:22;;;;;;;33.97;22.43;;;7.30;37.60;;;;;;5064247;28;20538;-67
2023/04/09 07:47:49;;;;;;;31.97;23.70;;;7.30;37.50;;;;;;5064238;28;20482;-67
2023/04/09 07:50:16;;;;;;;30.07;19.93;;;7.20;38.00;;;;;;5064136;28;20808;-67
2023/04/09 07:52:42;;;;;;;31.60;21.47;;;7.20;37.80;;;;;;5063604;28;20469;-67
2023/04/09 07:55:09;;;;;;;29.30;19.70;;;7.20;37.60;;;;;;5062906;28;20477;-67
2023/04/09 07:57:36;;;;;;;28.33;19.17;;;7.20;37.80;;;;;;5058420;28;20788;-67
2023/04/09 08:00:04;;;;;;;27.60;19.60;;;7.30;37.70;;;;;;5068622;28;20493;-67
2023/04/09 08:02:32;;;;;;;28.47;19.33;;;7.30;38.00;;;;;;5067981;28;20476;-67
2023/04/09 08:04:58;;;;;;;27.13;17.87;;;7.30;37.40;;;;;;5069152;28;20982;-67
2023/04/09 08:07:25;;;;;;;31.07;20.97;;;7.40;37.40;;;;;;5061390;28;22258;-67
2023/04/09 08:09:52;;;;;;;28.40;19.90;;;7.60;36.70;;;;;;5070753;28;20469;-69
2023/04/09 08:12:18;;;;;;;27.27;20.03;;;7.90;36.70;;;;;;5047015;28;20464;-69
2023/04/09 08:14:45;;;;;;;30.43;18.50;;;8.50;35.20;;;;;;5046426;28;20488;-65
2023/04/09 08:17:12;;;;;;;25.53;17.50;;;9.10;33.10;;;;;;5063765;28;20484;-66
2023/04/09 08:19:40;;;;;;;23.40;16.30;;;11.50;31.00;;;;;;5036022;28;20464;-67
2023/04/09 08:22:07;;;;;;;21.87;16.87;;;14.60;21.30;;;;;;5060122;28;20465;-67
2023/04/09 08:24:34;;;;;;;20.53;16.30;;;15.60;15.60;;;;;;5054900;28;20496;-67
2023/04/09 08:27:01;;;;;;;17.67;14.30;;;15.70;12.90;;;;;;5060066;28;20489;-67
2023/04/09 08:29:28;;;;;;;18.47;14.73;;;16.50;11.30;;;;;;5057549;28;20532;-68
2023/04/09 08:31:55;;;;;;;17.17;13.80;;;19.40;6.20;;;;;;5059763;28;20849;-67
2023/04/09 08:34:21;;;;;;;19.50;15.07;;;20.40;1.10;;;;;;5059300;28;20465;-67
2023/04/09 08:36:49;;;;;;;18.63;15.57;;;19.60;1.90;;;;;;5056846;28;20869;-69
2023/04/09 08:39:17;;;;;;;19.13;16.90;;;20.50;2.40;;;;;;5059256;28;20468;-67
2023/04/09 08:44:50;;;;;;;16.00;13.67;;;21.30;1.00;;;;;;5093664;22;20498;-65
2023/04/09 08:47:18;;;;;;;17.30;14.63;;;20.00;1.00;;;;;;5076756;22;20579;-65
2023/04/09 08:49:47;;;;;;;17.30;15.20;;;20.30;1.00;;;;;;5068341;28;20461;-65
2023/04/09 08:52:18;;;;;;;16.10;14.10;;;19.80;1.00;;;;;;5050234;22;20487;-64
2023/04/09 08:54:44;;;;;;;15.30;12.93;;;20.00;1.00;;;;;;5050426;28;20526;-64
2023/04/09 08:57:11;;;;;;;17.83;13.90;;;21.60;1.00;;;;;;5032426;28;20986;-66
2023/04/09 08:59:38;;;;;;;13.60;12.07;;;24.70;1.00;;;;;;5056426;28;20457;-66
2023/04/09 09:02:08;;;;;;;13.30;11.30;;;27.80;1.00;;;;;;5050185;28;20488;-66
2023/04/09 09:04:45;;;;;;;15.33;13.53;;;29.40;1.00;;;;;;5059944;28;20468;-64
2023/04/09 09:07:12;;;;;;;13.37;12.10;;;30.20;1.00;;;;;;5066098;28;20494;-64
2023/04/09 09:09:52;;;;;;;13.83;12.43;;;29.80;1.00;;;;;;5082295;22;20465;-68
2023/04/09 09:12:36;;;;;;;16.20;14.30;;;28.80;1.00;;;;;;5041863;28;20927;-67
2023/04/09 09:15:04;;;;;;;14.30;12.80;;;26.70;1.00;;;;;;5045499;28;20576;-68
2023/04/09 09:17:31;;;;;;;14.83;13.33;;;25.30;1.00;;;;;;5048365;28;20477;-67
2023/04/09 09:19:58;;;;;;;15.57;13.87;;;25.70;1.00;;;;;;5046120;28;20950;-67
2023/04/09 09:22:25;;;;;;;13.60;12.20;;;25.30;1.00;;;;;;5045131;28;20829;-67
2023/04/09 09:24:53;;;;;;;15.03;11.83;;;25.20;1.00;;;;;;5041388;28;20500;-67
2023/04/09 09:27:35;;;;;;;14.80;12.70;;;24.00;1.00;;;;;;5048214;28;20461;-67
2023/04/09 09:30:02;;;;;;;14.83;13.30;;;22.80;1.00;;;;;;5044644;28;20472;-67
2023/04/09 09:32:29;;;;;;;13.87;12.37;;;21.80;1.00;;;;;;5032915;28;20481;-68
2023/04/09 09:35:02;;;;;;;16.37;12.97;;;21.00;1.00;;;;;;5030552;28;20474;-66
2023/04/09 09:37:29;;;;;;;15.00;11.83;;;21.10;1.00;;;;;;5029949;28;20466;-67
2023/04/09 09:39:58;;;;;;;13.83;12.10;;;23.40;1.00;;;;;;5027938;28;20837;-67
2023/04/09 09:42:26;;;;;;;13.23;11.60;;;26.70;1.00;;;;;;5023256;28;20486;-68
2023/04/09 09:44:53;;;;;;;10.77;9.60;;;27.90;1.00;;;;;;5028426;28;20481;-68
2023/04/09 09:47:21;;;;;;;11.30;9.80;;;29.10;1.00;;;;;;5030376;28;20491;-67
2023/04/09 09:49:48;;;;;;;12.97;10.37;;;27.90;1.00;;;;;;5024870;28;20500;-67
2023/04/09 09:52:18;;;;;;;11.50;10.00;;;25.70;1.00;;;;;;5024621;28;20867;-68
2023/04/09 09:54:48;;;;;;;11.83;10.30;;;26.50;1.00;;;;;;5034232;28;20498;-67
2023/04/09 09:57:21;;;;;;;12.77;10.57;;;26.60;1.00;;;;;;5032987;28;20462;-68
2023/04/09 09:59:53;;;;;;;13.47;11.30;;;25.50;1.00;;;;;;5028584;28;20463;-68
2023/04/09 10:02:23;;;;;;;12.80;11.50;;;27.40;1.00;;;;;;5045337;28;20989;-68
2023/04/09 10:04:51;;;;;;;11.97;10.77;;;30.40;1.00;;;;;;5049686;28;20466;-68
2023/04/09 10:07:19;;;;;;;11.00;9.83;;;32.90;1.00;;;;;;5045872;28;20549;-68
2023/04/09 10:09:48;;;;;;;10.30;9.20;;;34.60;1.00;;;;;;5051242;28;20458;-68
2023/04/09 10:12:17;;;;;;;10.47;8.90;;;34.20;1.00;;;;;;5043274;28;20493;-68
2023/04/09 10:14:45;;;;;;;9.73;8.73;;;32.70;1.00;;;;;;5051899;28;20818;-68
2023/04/09 10:17:12;;;;;;;9.63;8.63;;;32.10;1.00;;;;;;5041392;28;20493;-68
2023/04/09 10:19:43;;;;;;;9.33;8.37;;;32.40;1.00;;;;;;5046457;28;20469;-68
2023/04/09 10:22:12;;;;;;;9.80;8.80;;;30.90;1.00;;;;;;5047965;28;20477;-69
2023/04/09 10:24:40;;;;;;;12.70;11.40;;;28.30;1.00;;;;;;5043001;28;20489;-67
2023/04/09 10:27:10;;;;;;;10.70;9.60;;;26.60;1.00;;;;;;5045119;28;20538;-67
2023/04/09 10:29:44;;;;;;;10.60;8.70;;;25.70;1.00;;;;;;5051360;28;20462;-67
2023/04/09 10:32:11;;;;;;;12.30;10.10;;;24.40;1.00;;;;;;5044161;28;20504;-67
2023/04/09 10:34:40;;;;;;;9.67;8.40;;;23.60;1.00;;;;;;5044836;28;20467;-68
2023/04/09 10:37:09;;;;;;;12.23;10.50;;;23.60;1.00;;;;;;5045643;28;20482;-68
2023/04/09 10:39:41;;;;;;;10.50;8.93;;;24.70;1.00;;;;;;5051403;28;20516;-68
2023/04/09 10:42:13;;;;;;;11.17;10.00;;;27.70;1.00;;;;;;5041522;28;20556;-69
2023/04/09 10:44:41;;;;;;;11.50;8.90;;;28.00;1.00;;;;;;5054161;28;20470;-67
2023/04/09 10:47:10;;;;;;;12.60;9.83;;;28.00;1.00;;;;;;5049534;28;20463;-68
2023/04/09 10:49:38;;;;;;;10.37;8.87;;;29.10;1.00;;;;;;5047109;28;20470;-67
2023/04/09 10:52:06;;;;;;;9.67;8.20;;;29.70;1.00;;;;;;5043164;28;20481;-67
2023/04/09 10:54:44;;;;;;;7.20;5.43;;;30.50;1.00;;;;;;5042292;28;20497;-67
2023/04/09 10:57:19;;;;;;;8.40;6.60;;;31.10;1.00;;;;;;5046945;28;21003;-67
2023/04/09 10:59:48;;;;;;;7.70;5.70;;;31.00;1.00;;;;;;5046132;28;20465;-68
2023/04/09 11:02:45;;;;;;;8.63;7.00;;;31.90;1.00;;;;;;5045226;28;20478;-67
2023/04/09 11:05:19;;;;;;;8.60;6.30;;;31.80;1.00;;;;;;5051236;28;20490;-68
2023/04/09 11:07:53;;;;;;;8.97;7.27;;;30.10;1.00;;;;;;5047262;28;20474;-67
2023/04/09 11:10:19;;;;;;;8.80;6.77;;;27.00;1.00;;;;;;5041905;28;20470;-67
2023/04/09 11:12:47;;;;;;;7.77;5.80;;;24.80;1.00;;;;;;5043292;28;20490;-67
2023/04/09 11:15:17;;;;;;;8.27;6.30;;;23.60;1.00;;;;;;5045417;28;20453;-67
2023/04/09 11:17:46;;;;;;;8.10;6.20;;;22.30;1.00;;;;;;5049296;28;20466;-67
2023/04/09 11:20:13;;;;;;;9.30;6.10;;;21.10;1.00;;;;;;5053344;28;20466;-67
2023/04/09 11:22:40;;;;;;;10.23;6.30;;;20.00;1.00;;;;;;5046900;28;20495;-67
2023/04/09 11:25:07;;;;;;;8.20;5.73;;;19.20;1.00;;;;;;5043003;28;20466;-67
2023/04/09 11:27:37;;;;;;;7.90;5.77;;;18.60;1.00;;;;;;5044730;28;20493;-66
2023/04/09 11:30:05;;;;;;;8.33;6.33;;;18.00;1.00;;;;;;5047932;28;20539;-66
2023/04/09 11:32:33;;;;;;;9.70;6.93;;;17.90;1.00;;;;;;5048107;28;20502;-66
2023/04/09 11:35:01;;;;;;;8.37;5.40;;;17.70;1.00;;;;;;5055434;28;20462;-67
2023/04/09 11:37:28;;;;;;;8.97;5.90;;;17.30;1.00;;;;;;5055616;28;20826;-67
2023/04/09 11:39:56;;;;;;;8.10;5.57;;;16.90;1.00;;;;;;5051736;28;20493;-66
2023/04/09 11:42:24;;;;;;;8.00;5.63;;;16.40;1.00;;;;;;5040718;28;20574;-67
2023/04/09 11:44:52;;;;;;;8.37;6.20;;;16.00;1.00;;;;;;5045005;28;20513;-67
2023/04/09 11:47:20;;;;;;;9.63;6.80;;;15.50;1.00;;;;;;5049970;28;20461;-66
2023/04/09 11:49:47;;;;;;;8.30;5.63;;;15.20;1.00;;;;;;5040197;28;20466;-66
2023/04/09 11:52:15;;;;;;;9.30;6.40;;;15.10;1.00;;;;;;5037363;28;20529;-66
2023/04/09 11:54:42;;;;;;;9.17;6.70;;;15.10;2.00;;;;;;5038179;28;20485;-67
2023/04/09 11:57:09;;;;;;;9.77;7.20;;;15.20;2.60;;;;;;5042042;28;20505;-66
2023/04/09 11:59:39;;;;;;;9.43;6.43;;;15.40;1.70;;;;;;5047796;28;20469;-67
2023/04/09 12:02:07;;;;;;;9.20;6.23;;;15.60;1.50;;;;;;5042138;28;20485;-67
2023/04/09 12:04:34;;;;;;;9.27;6.83;;;15.80;2.20;;;;;;5045830;28;20502;-67
2023/04/09 12:07:01;;;;;;;10.53;7.17;;;16.10;1.80;;;;;;5042054;28;20463;-67
2023/04/09 12:09:29;;;;;;;8.90;5.80;;;16.10;1.00;;;;;;5050202;28;20473;-67
2023/04/09 12:11:56;;;;;;;9.67;7.20;;;15.90;1.00;;;;;;5035425;28;20501;-67
2023/04/09 12:14:23;;;;;;;9.23;6.50;;;15.80;1.20;;;;;;5047602;28;20466;-68
2023/04/09 12:16:51;;;;;;;8.37;5.70;;;15.30;1.00;;;;;;5047073;28;20478;-67
2023/04/09 12:19:19;;;;;;;9.20;6.43;;;15.00;1.00;;;;;;5048763;28;20465;-66
2023/04/09 12:21:47;;;;;;;9.10;6.10;;;14.80;1.80;;;;;;5037316;28;20840;-66
2023/04/09 12:24:14;;;;;;;9.80;6.50;;;14.70;1.80;;;;;;5049387;28;20465;-66
2023/04/09 12:26:42;;;;;;;10.73;7.37;;;14.70;1.90;;;;;;5047436;28;20834;-66
2023/04/09 12:29:09;;;;;;;9.60;6.47;;;14.60;1.90;;;;;;5039865;28;20461;-67
2023/04/09 12:31:36;;;;;;;8.60;6.10;;;14.50;2.10;;;;;;5041024;28;20478;-67
2023/04/09 12:34:03;;;;;;;11.23;7.03;;;14.50;2.20;;;;;;5038480;28;21018;-67
2023/04/09 12:36:29;;;;;;;10.43;7.30;;;14.30;2.70;;;;;;5043314;28;20482;-67
2023/04/09 12:38:56;;;;;;;12.20;8.70;;;14.40;3.30;;;;;;5047398;28;21200;-66
2023/04/09 12:41:24;;;;;;;11.20;6.40;;;14.30;4.10;;;;;;5041012;28;20486;-67
2023/04/09 12:43:52;;;;;;;9.90;7.07;;;14.10;3.60;;;;;;5052352;28;20837;-67
2023/04/09 12:46:19;;;;;;;9.90;7.40;;;14.00;3.50;;;;;;5047734;28;20461;-67